sensor_id;sensor_type;location;lat;lon;timestamp;P1;durP1;ratioP1;P2;durP2;ratioP2
67941;SDS011;54731;42.600;23.476;2022-10-15T00:00:19;8.33;;;4.33;;
67941;SDS011;54731;42.600;23.476;2022-10-15T00:02:44;6.93;;;4.30;;
67941;SDS011;54731;42.600;23.476;2022-10-15T00:05:10;10.47;;;3.87;;
67941;SDS011;54731;42.600;23.476;2022-10-15T00:07:35;6.18;;;3.70;;
67941;SDS011;54731;42.600;23.476;2022-10-15T00:10:00;8.00;;;4.00;;
67941;SDS011;54731;42.600;23.476;2022-10-15T00:12:26;7.00;;;4.13;;
67941;SDS011;54731;42.600;23.476;2022-10-15T00:14:51;8.13;;;4.23;;
67941;SDS011;54731;42.600;23.476;2022-10-15T00:17:16;9.33;;;4.20;;
67941;SDS011;54731;42.600;23.476;2022-10-15T00:19:42;6.50;;;4.30;;
67941;SDS011;54731;42.600;23.476;2022-10-15T00:22:07;8.10;;;4.47;;
67941;SDS011;54731;42.600;23.476;2022-10-15T00:24:32;5.87;;;4.03;;
67941;SDS011;54731;42.600;23.476;2022-10-15T00:26:58;7.07;;;4.60;;
67941;SDS011;54731;42.600;23.476;2022-10-15T00:29:23;6.07;;;4.10;;
67941;SDS011;54731;42.600;23.476;2022-10-15T00:31:48;5.87;;;4.43;;
67941;SDS011;54731;42.600;23.476;2022-10-15T00:34:13;7.37;;;4.53;;
67941;SDS011;54731;42.600;23.476;2022-10-15T00:36:39;10.00;;;4.60;;
67941;SDS011;54731;42.600;23.476;2022-10-15T00:39:05;10.47;;;4.63;;
67941;SDS011;54731;42.600;23.476;2022-10-15T00:41:31;6.72;;;4.70;;
67941;SDS011;54731;42.600;23.476;2022-10-15T00:44:00;5.70;;;4.50;;
67941;SDS011;54731;42.600;23.476;2022-10-15T00:46:44;8.27;;;4.87;;
67941;SDS011;54731;42.600;23.476;2022-10-15T00:49:27;8.20;;;5.28;;
67941;SDS011;54731;42.600;23.476;2022-10-15T00:54:24;10.13;;;5.35;;
67941;SDS011;54731;42.600;23.476;2022-10-15T00:56:52;11.23;;;5.68;;
67941;SDS011;54731;42.600;23.476;2022-10-15T00:59:19;8.40;;;5.30;;
67941;SDS011;54731;42.600;23.476;2022-10-15T01:01:48;9.75;;;5.47;;
67941;SDS011;54731;42.600;23.476;2022-10-15T01:04:13;8.17;;;5.33;;
67941;SDS011;54731;42.600;23.476;2022-10-15T01:06:39;6.57;;;4.78;;
67941;SDS011;54731;42.600;23.476;2022-10-15T01:09:04;7.17;;;5.43;;
67941;SDS011;54731;42.600;23.476;2022-10-15T01:11:35;9.35;;;4.82;;
67941;SDS011;54731;42.600;23.476;2022-10-15T01:17:06;8.70;;;5.18;;
67941;SDS011;54731;42.600;23.476;2022-10-15T01:31:02;10.05;;;5.82;;
67941;SDS011;54731;42.600;23.476;2022-10-15T01:33:51;11.43;;;5.47;;
67941;SDS011;54731;42.600;23.476;2022-10-15T01:36:41;8.20;;;4.93;;
67941;SDS011;54731;42.600;23.476;2022-10-15T01:39:20;6.70;;;4.70;;
67941;SDS011;54731;42.600;23.476;2022-10-15T01:41:53;5.97;;;4.80;;
67941;SDS011;54731;42.600;23.476;2022-10-15T01:44:34;9.68;;;4.85;;
67941;SDS011;54731;42.600;23.476;2022-10-15T01:47:14;7.40;;;4.35;;
67941;SDS011;54731;42.600;23.476;2022-10-15T01:49:44;8.77;;;4.50;;
67941;SDS011;54731;42.600;23.476;2022-10-15T01:52:12;8.10;;;4.68;;
67941;SDS011;54731;42.600;23.476;2022-10-15T01:54:42;9.80;;;5.20;;
67941;SDS011;54731;42.600;23.476;2022-10-15T01:57:10;7.32;;;5.03;;
67941;SDS011;54731;42.600;23.476;2022-10-15T01:59:37;9.23;;;5.38;;
67941;SDS011;54731;42.600;23.476;2022-10-15T02:02:03;7.50;;;4.50;;
67941;SDS011;54731;42.600;23.476;2022-10-15T02:04:29;7.50;;;5.10;;
67941;SDS011;54731;42.600;23.476;2022-10-15T02:07:06;10.93;;;5.40;;
67941;SDS011;54731;42.600;23.476;2022-10-15T02:10:18;8.60;;;4.50;;
67941;SDS011;54731;42.600;23.476;2022-10-15T02:21:04;6.43;;;4.90;;
67941;SDS011;54731;42.600;23.476;2022-10-15T02:26:03;7.32;;;4.75;;
67941;SDS011;54731;42.600;23.476;2022-10-15T02:28:32;7.15;;;4.93;;
67941;SDS011;54731;42.600;23.476;2022-10-15T02:31:00;7.53;;;4.68;;
67941;SDS011;54731;42.600;23.476;2022-10-15T02:33:27;7.30;;;4.68;;
67941;SDS011;54731;42.600;23.476;2022-10-15T02:35:54;6.70;;;4.37;;
67941;SDS011;54731;42.600;23.476;2022-10-15T02:38:21;7.63;;;4.75;;
67941;SDS011;54731;42.600;23.476;2022-10-15T02:40:49;5.80;;;4.40;;
67941;SDS011;54731;42.600;23.476;2022-10-15T02:43:17;8.85;;;4.95;;
67941;SDS011;54731;42.600;23.476;2022-10-15T02:45:43;12.43;;;4.80;;
67941;SDS011;54731;42.600;23.476;2022-10-15T02:48:08;9.40;;;5.03;;
67941;SDS011;54731;42.600;23.476;2022-10-15T02:50:34;6.83;;;5.23;;
67941;SDS011;54731;42.600;23.476;2022-10-15T02:52:59;8.07;;;5.00;;
67941;SDS011;54731;42.600;23.476;2022-10-15T02:55:24;6.53;;;4.90;;
67941;SDS011;54731;42.600;23.476;2022-10-15T02:57:49;7.27;;;4.80;;
67941;SDS011;54731;42.600;23.476;2022-10-15T03:00:15;7.40;;;5.40;;
67941;SDS011;54731;42.600;23.476;2022-10-15T03:02:40;8.48;;;5.15;;
67941;SDS011;54731;42.600;23.476;2022-10-15T03:05:06;7.93;;;5.40;;
67941;SDS011;54731;42.600;23.476;2022-10-15T03:07:31;9.67;;;5.23;;
67941;SDS011;54731;42.600;23.476;2022-10-15T03:09:57;8.97;;;5.30;;
67941;SDS011;54731;42.600;23.476;2022-10-15T03:12:22;8.60;;;5.77;;
67941;SDS011;54731;42.600;23.476;2022-10-15T03:14:48;10.27;;;5.43;;
67941;SDS011;54731;42.600;23.476;2022-10-15T03:17:13;10.05;;;5.30;;
67941;SDS011;54731;42.600;23.476;2022-10-15T03:19:39;7.47;;;5.28;;
67941;SDS011;54731;42.600;23.476;2022-10-15T03:22:04;7.10;;;5.25;;
67941;SDS011;54731;42.600;23.476;2022-10-15T03:24:29;9.60;;;5.90;;
67941;SDS011;54731;42.600;23.476;2022-10-15T03:26:55;20.77;;;10.90;;
67941;SDS011;54731;42.600;23.476;2022-10-15T03:29:20;13.80;;;8.40;;
67941;SDS011;54731;42.600;23.476;2022-10-15T03:31:45;7.33;;;5.30;;
67941;SDS011;54731;42.600;23.476;2022-10-15T03:34:11;7.80;;;4.87;;
67941;SDS011;54731;42.600;23.476;2022-10-15T03:36:36;10.37;;;5.40;;
67941;SDS011;54731;42.600;23.476;2022-10-15T03:39:01;7.43;;;4.43;;
67941;SDS011;54731;42.600;23.476;2022-10-15T03:41:27;5.13;;;4.32;;
67941;SDS011;54731;42.600;23.476;2022-10-15T03:43:52;6.50;;;4.00;;
67941;SDS011;54731;42.600;23.476;2022-10-15T03:46:18;9.50;;;4.40;;
67941;SDS011;54731;42.600;23.476;2022-10-15T03:48:43;8.13;;;4.27;;
67941;SDS011;54731;42.600;23.476;2022-10-15T03:51:13;5.65;;;4.03;;
67941;SDS011;54731;42.600;23.476;2022-10-15T03:53:39;6.17;;;3.83;;
67941;SDS011;54731;42.600;23.476;2022-10-15T03:56:05;6.33;;;4.00;;
67941;SDS011;54731;42.600;23.476;2022-10-15T03:58:30;10.05;;;5.55;;
67941;SDS011;54731;42.600;23.476;2022-10-15T04:00:56;5.53;;;4.10;;
67941;SDS011;54731;42.600;23.476;2022-10-15T04:03:21;8.68;;;4.07;;
67941;SDS011;54731;42.600;23.476;2022-10-15T04:05:50;6.00;;;3.83;;
67941;SDS011;54731;42.600;23.476;2022-10-15T04:08:15;4.47;;;4.00;;
67941;SDS011;54731;42.600;23.476;2022-10-15T04:10:41;7.45;;;4.38;;
67941;SDS011;54731;42.600;23.476;2022-10-15T04:13:06;4.65;;;3.72;;
67941;SDS011;54731;42.600;23.476;2022-10-15T04:15:32;5.40;;;3.67;;
67941;SDS011;54731;42.600;23.476;2022-10-15T04:17:57;6.07;;;3.80;;
67941;SDS011;54731;42.600;23.476;2022-10-15T04:20:22;6.97;;;4.33;;
67941;SDS011;54731;42.600;23.476;2022-10-15T04:22:48;4.67;;;3.63;;
67941;SDS011;54731;42.600;23.476;2022-10-15T04:25:13;6.57;;;4.13;;
67941;SDS011;54731;42.600;23.476;2022-10-15T04:27:39;6.28;;;3.70;;
67941;SDS011;54731;42.600;23.476;2022-10-15T04:30:04;7.43;;;3.97;;
67941;SDS011;54731;42.600;23.476;2022-10-15T04:32:30;5.97;;;3.63;;
67941;SDS011;54731;42.600;23.476;2022-10-15T04:34:56;8.07;;;3.80;;
67941;SDS011;54731;42.600;23.476;2022-10-15T04:37:21;5.63;;;3.60;;
67941;SDS011;54731;42.600;23.476;2022-10-15T04:39:46;5.13;;;3.63;;
67941;SDS011;54731;42.600;23.476;2022-10-15T04:42:12;6.83;;;3.70;;
67941;SDS011;54731;42.600;23.476;2022-10-15T04:44:37;7.73;;;4.20;;
67941;SDS011;54731;42.600;23.476;2022-10-15T04:47:02;6.27;;;4.27;;
67941;SDS011;54731;42.600;23.476;2022-10-15T04:49:28;5.57;;;3.63;;
67941;SDS011;54731;42.600;23.476;2022-10-15T04:51:53;7.20;;;4.22;;
67941;SDS011;54731;42.600;23.476;2022-10-15T04:54:18;7.03;;;4.17;;
67941;SDS011;54731;42.600;23.476;2022-10-15T04:56:44;8.13;;;4.20;;
67941;SDS011;54731;42.600;23.476;2022-10-15T04:59:09;6.93;;;3.90;;
67941;SDS011;54731;42.600;23.476;2022-10-15T05:01:34;5.93;;;3.63;;
67941;SDS011;54731;42.600;23.476;2022-10-15T05:03:59;6.67;;;4.20;;
67941;SDS011;54731;42.600;23.476;2022-10-15T05:06:25;7.35;;;4.00;;
67941;SDS011;54731;42.600;23.476;2022-10-15T05:08:50;7.47;;;4.32;;
67941;SDS011;54731;42.600;23.476;2022-10-15T05:11:17;5.57;;;4.20;;
67941;SDS011;54731;42.600;23.476;2022-10-15T05:13:44;6.82;;;3.88;;
67941;SDS011;54731;42.600;23.476;2022-10-15T05:16:14;7.37;;;4.27;;
67941;SDS011;54731;42.600;23.476;2022-10-15T05:18:41;5.72;;;4.03;;
67941;SDS011;54731;42.600;23.476;2022-10-15T05:21:07;6.75;;;4.25;;
67941;SDS011;54731;42.600;23.476;2022-10-15T05:23:33;6.93;;;4.40;;
67941;SDS011;54731;42.600;23.476;2022-10-15T05:25:59;5.75;;;4.15;;
67941;SDS011;54731;42.600;23.476;2022-10-15T05:28:25;7.22;;;4.45;;
67941;SDS011;54731;42.600;23.476;2022-10-15T05:30:50;7.97;;;5.30;;
67941;SDS011;54731;42.600;23.476;2022-10-15T05:33:16;10.30;;;6.07;;
67941;SDS011;54731;42.600;23.476;2022-10-15T05:35:41;25.80;;;12.63;;
67941;SDS011;54731;42.600;23.476;2022-10-15T05:38:06;116.97;;;51.47;;
67941;SDS011;54731;42.600;23.476;2022-10-15T05:40:32;112.33;;;52.70;;
67941;SDS011;54731;42.600;23.476;2022-10-15T05:42:57;112.67;;;54.37;;
67941;SDS011;54731;42.600;23.476;2022-10-15T05:45:22;115.23;;;53.33;;
67941;SDS011;54731;42.600;23.476;2022-10-15T05:47:48;53.20;;;25.60;;
67941;SDS011;54731;42.600;23.476;2022-10-15T05:50:13;31.60;;;15.53;;
67941;SDS011;54731;42.600;23.476;2022-10-15T05:52:39;32.13;;;15.27;;
67941;SDS011;54731;42.600;23.476;2022-10-15T05:55:04;24.23;;;12.10;;
67941;SDS011;54731;42.600;23.476;2022-10-15T05:57:30;14.43;;;7.63;;
67941;SDS011;54731;42.600;23.476;2022-10-15T05:59:55;11.97;;;6.73;;
67941;SDS011;54731;42.600;23.476;2022-10-15T06:02:20;12.77;;;6.97;;
67941;SDS011;54731;42.600;23.476;2022-10-15T06:04:46;10.87;;;6.47;;
67941;SDS011;54731;42.600;23.476;2022-10-15T06:07:12;15.32;;;8.35;;
67941;SDS011;54731;42.600;23.476;2022-10-15T06:09:37;11.60;;;6.57;;
67941;SDS011;54731;42.600;23.476;2022-10-15T06:12:02;11.30;;;6.57;;
67941;SDS011;54731;42.600;23.476;2022-10-15T06:14:27;12.67;;;6.87;;
67941;SDS011;54731;42.600;23.476;2022-10-15T06:16:53;13.77;;;6.90;;
67941;SDS011;54731;42.600;23.476;2022-10-15T06:19:18;8.53;;;5.27;;
67941;SDS011;54731;42.600;23.476;2022-10-15T06:21:43;9.02;;;5.22;;
67941;SDS011;54731;42.600;23.476;2022-10-15T06:24:09;11.50;;;5.50;;
67941;SDS011;54731;42.600;23.476;2022-10-15T06:26:34;10.70;;;5.60;;
67941;SDS011;54731;42.600;23.476;2022-10-15T06:29:00;13.90;;;7.70;;
67941;SDS011;54731;42.600;23.476;2022-10-15T06:31:25;11.23;;;6.70;;
67941;SDS011;54731;42.600;23.476;2022-10-15T06:33:50;8.27;;;5.57;;
67941;SDS011;54731;42.600;23.476;2022-10-15T06:36:16;10.10;;;5.60;;
67941;SDS011;54731;42.600;23.476;2022-10-15T06:38:41;10.85;;;6.32;;
67941;SDS011;54731;42.600;23.476;2022-10-15T06:41:06;8.07;;;5.47;;
67941;SDS011;54731;42.600;23.476;2022-10-15T06:43:32;7.33;;;4.97;;
67941;SDS011;54731;42.600;23.476;2022-10-15T06:45:58;8.15;;;4.57;;
67941;SDS011;54731;42.600;23.476;2022-10-15T06:48:24;17.33;;;9.40;;
67941;SDS011;54731;42.600;23.476;2022-10-15T06:50:49;12.70;;;8.32;;
67941;SDS011;54731;42.600;23.476;2022-10-15T06:53:14;10.97;;;6.33;;
67941;SDS011;54731;42.600;23.476;2022-10-15T06:55:40;7.97;;;4.60;;
67941;SDS011;54731;42.600;23.476;2022-10-15T06:58:05;10.37;;;5.07;;
67941;SDS011;54731;42.600;23.476;2022-10-15T07:00:30;9.87;;;4.90;;
67941;SDS011;54731;42.600;23.476;2022-10-15T07:02:56;7.87;;;5.57;;
67941;SDS011;54731;42.600;23.476;2022-10-15T07:05:21;8.57;;;5.30;;
67941;SDS011;54731;42.600;23.476;2022-10-15T07:07:53;8.87;;;4.83;;
67941;SDS011;54731;42.600;23.476;2022-10-15T07:10:19;14.10;;;5.70;;
67941;SDS011;54731;42.600;23.476;2022-10-15T07:12:45;10.23;;;5.80;;
67941;SDS011;54731;42.600;23.476;2022-10-15T07:15:10;17.37;;;5.20;;
67941;SDS011;54731;42.600;23.476;2022-10-15T07:17:36;8.83;;;4.53;;
67941;SDS011;54731;42.600;23.476;2022-10-15T07:20:01;8.43;;;5.43;;
67941;SDS011;54731;42.600;23.476;2022-10-15T07:22:27;9.38;;;5.35;;
67941;SDS011;54731;42.600;23.476;2022-10-15T07:24:52;11.23;;;5.03;;
67941;SDS011;54731;42.600;23.476;2022-10-15T07:27:21;9.63;;;4.70;;
67941;SDS011;54731;42.600;23.476;2022-10-15T07:29:46;11.57;;;4.60;;
67941;SDS011;54731;42.600;23.476;2022-10-15T07:32:11;9.27;;;5.07;;
67941;SDS011;54731;42.600;23.476;2022-10-15T07:34:37;11.53;;;5.60;;
67941;SDS011;54731;42.600;23.476;2022-10-15T07:37:02;7.07;;;4.70;;
67941;SDS011;54731;42.600;23.476;2022-10-15T07:39:27;11.23;;;5.30;;
67941;SDS011;54731;42.600;23.476;2022-10-15T07:41:52;12.37;;;4.00;;
67941;SDS011;54731;42.600;23.476;2022-10-15T07:44:18;11.03;;;5.00;;
67941;SDS011;54731;42.600;23.476;2022-10-15T07:46:43;11.43;;;5.15;;
67941;SDS011;54731;42.600;23.476;2022-10-15T07:49:08;13.73;;;5.17;;
67941;SDS011;54731;42.600;23.476;2022-10-15T07:51:34;9.40;;;4.77;;
67941;SDS011;54731;42.600;23.476;2022-10-15T07:53:59;9.70;;;5.33;;
67941;SDS011;54731;42.600;23.476;2022-10-15T07:56:25;7.13;;;4.80;;
67941;SDS011;54731;42.600;23.476;2022-10-15T07:58:50;8.57;;;5.10;;
67941;SDS011;54731;42.600;23.476;2022-10-15T08:01:15;10.02;;;4.82;;
67941;SDS011;54731;42.600;23.476;2022-10-15T08:03:42;7.60;;;4.47;;
67941;SDS011;54731;42.600;23.476;2022-10-15T08:06:07;8.18;;;4.28;;
67941;SDS011;54731;42.600;23.476;2022-10-15T08:08:33;10.87;;;5.87;;
67941;SDS011;54731;42.600;23.476;2022-10-15T08:11:09;10.75;;;5.22;;
67941;SDS011;54731;42.600;23.476;2022-10-15T08:13:38;8.77;;;4.80;;
67941;SDS011;54731;42.600;23.476;2022-10-15T08:16:04;8.43;;;4.78;;
67941;SDS011;54731;42.600;23.476;2022-10-15T08:18:30;8.97;;;5.17;;
67941;SDS011;54731;42.600;23.476;2022-10-15T08:20:57;10.63;;;5.63;;
67941;SDS011;54731;42.600;23.476;2022-10-15T08:23:23;9.30;;;4.72;;
67941;SDS011;54731;42.600;23.476;2022-10-15T08:25:49;6.77;;;4.53;;
67941;SDS011;54731;42.600;23.476;2022-10-15T08:28:14;11.20;;;5.70;;
67941;SDS011;54731;42.600;23.476;2022-10-15T08:30:40;12.20;;;5.03;;
67941;SDS011;54731;42.600;23.476;2022-10-15T08:33:05;15.97;;;6.37;;
67941;SDS011;54731;42.600;23.476;2022-10-15T08:35:30;9.90;;;4.60;;
67941;SDS011;54731;42.600;23.476;2022-10-15T08:37:55;12.07;;;4.50;;
67941;SDS011;54731;42.600;23.476;2022-10-15T08:40:21;9.53;;;4.43;;
67941;SDS011;54731;42.600;23.476;2022-10-15T08:42:46;12.13;;;5.35;;
67941;SDS011;54731;42.600;23.476;2022-10-15T08:45:13;21.20;;;7.18;;
67941;SDS011;54731;42.600;23.476;2022-10-15T08:47:56;10.85;;;5.25;;
67941;SDS011;54731;42.600;23.476;2022-10-15T08:50:42;6.93;;;4.32;;
67941;SDS011;54731;42.600;23.476;2022-10-15T08:53:22;11.38;;;6.43;;
67941;SDS011;54731;42.600;23.476;2022-10-15T08:55:50;17.98;;;6.68;;
67941;SDS011;54731;42.600;23.476;2022-10-15T08:58:21;12.02;;;5.03;;
67941;SDS011;54731;42.600;23.476;2022-10-15T09:00:52;8.93;;;4.30;;
67941;SDS011;54731;42.600;23.476;2022-10-15T09:06:12;6.35;;;4.18;;
67941;SDS011;54731;42.600;23.476;2022-10-15T09:14:32;9.05;;;4.25;;
67941;SDS011;54731;42.600;23.476;2022-10-15T09:17:06;8.20;;;4.30;;
67941;SDS011;54731;42.600;23.476;2022-10-15T09:19:46;9.10;;;5.03;;
67941;SDS011;54731;42.600;23.476;2022-10-15T09:22:14;11.52;;;4.72;;
67941;SDS011;54731;42.600;23.476;2022-10-15T09:24:42;10.50;;;4.57;;
67941;SDS011;54731;42.600;23.476;2022-10-15T09:27:09;6.90;;;4.38;;
67941;SDS011;54731;42.600;23.476;2022-10-15T09:29:49;11.23;;;5.00;;
67941;SDS011;54731;42.600;23.476;2022-10-15T09:32:29;6.97;;;4.13;;
67941;SDS011;54731;42.600;23.476;2022-10-15T09:37:53;6.05;;;4.18;;
67941;SDS011;54731;42.600;23.476;2022-10-15T09:41:16;7.53;;;3.90;;
67941;SDS011;54731;42.600;23.476;2022-10-15T09:43:38;19.50;;;13.80;;
67941;SDS011;54731;42.600;23.476;2022-10-15T09:46:04;12.65;;;7.75;;
67941;SDS011;54731;42.600;23.476;2022-10-15T09:48:31;11.83;;;6.93;;
67941;SDS011;54731;42.600;23.476;2022-10-15T09:51:03;7.28;;;3.78;;
67941;SDS011;54731;42.600;23.476;2022-10-15T09:56:34;9.40;;;5.30;;
67941;SDS011;54731;42.600;23.476;2022-10-15T09:59:02;6.68;;;3.47;;
67941;SDS011;54731;42.600;23.476;2022-10-15T10:01:29;6.57;;;3.67;;
67941;SDS011;54731;42.600;23.476;2022-10-15T10:04:09;13.43;;;6.65;;
67941;SDS011;54731;42.600;23.476;2022-10-15T10:06:49;9.10;;;4.40;;
67941;SDS011;54731;42.600;23.476;2022-10-15T10:09:18;7.53;;;4.47;;
67941;SDS011;54731;42.600;23.476;2022-10-15T10:11:49;8.40;;;4.38;;
67941;SDS011;54731;42.600;23.476;2022-10-15T10:14:22;9.88;;;3.08;;
67941;SDS011;54731;42.600;23.476;2022-10-15T10:19:42;6.97;;;3.60;;
67941;SDS011;54731;42.600;23.476;2022-10-15T10:22:12;9.32;;;5.50;;
67941;SDS011;54731;42.600;23.476;2022-10-15T10:24:40;10.77;;;6.05;;
67941;SDS011;54731;42.600;23.476;2022-10-15T10:27:19;14.37;;;7.53;;
67941;SDS011;54731;42.600;23.476;2022-10-15T10:29:54;12.07;;;7.65;;
67941;SDS011;54731;42.600;23.476;2022-10-15T10:32:30;7.20;;;3.65;;
67941;SDS011;54731;42.600;23.476;2022-10-15T10:34:58;5.32;;;2.80;;
67941;SDS011;54731;42.600;23.476;2022-10-15T10:37:24;6.28;;;3.60;;
67941;SDS011;54731;42.600;23.476;2022-10-15T10:39:51;8.30;;;2.90;;
67941;SDS011;54731;42.600;23.476;2022-10-15T10:44:43;4.47;;;2.67;;
67941;SDS011;54731;42.600;23.476;2022-10-15T10:47:18;18.53;;;11.10;;
67941;SDS011;54731;42.600;23.476;2022-10-15T10:49:46;8.25;;;4.45;;
67941;SDS011;54731;42.600;23.476;2022-10-15T10:52:27;6.05;;;3.72;;
67941;SDS011;54731;42.600;23.476;2022-10-15T10:57:33;5.65;;;3.70;;
67941;SDS011;54731;42.600;23.476;2022-10-15T11:00:16;7.43;;;4.05;;
67941;SDS011;54731;42.600;23.476;2022-10-15T11:02:43;6.68;;;3.38;;
67941;SDS011;54731;42.600;23.476;2022-10-15T11:05:09;8.53;;;3.80;;
67941;SDS011;54731;42.600;23.476;2022-10-15T11:10:38;7.63;;;3.55;;
67941;SDS011;54731;42.600;23.476;2022-10-15T11:13:25;7.03;;;4.13;;
67941;SDS011;54731;42.600;23.476;2022-10-15T11:24:20;5.30;;;3.00;;
67941;SDS011;54731;42.600;23.476;2022-10-15T11:32:12;4.55;;;3.13;;
67941;SDS011;54731;42.600;23.476;2022-10-15T11:38:04;8.15;;;3.55;;
67941;SDS011;54731;42.600;23.476;2022-10-15T11:41:04;7.35;;;3.60;;
67941;SDS011;54731;42.600;23.476;2022-10-15T11:57:17;5.95;;;3.38;;
67941;SDS011;54731;42.600;23.476;2022-10-15T11:59:45;5.80;;;2.95;;
67941;SDS011;54731;42.600;23.476;2022-10-15T12:02:38;11.10;;;3.70;;
67941;SDS011;54731;42.600;23.476;2022-10-15T12:08:02;4.78;;;2.63;;
67941;SDS011;54731;42.600;23.476;2022-10-15T12:10:34;9.10;;;2.65;;
67941;SDS011;54731;42.600;23.476;2022-10-15T12:13:14;11.35;;;3.92;;
67941;SDS011;54731;42.600;23.476;2022-10-15T12:16:02;5.65;;;3.28;;
67941;SDS011;54731;42.600;23.476;2022-10-15T12:18:54;7.30;;;3.80;;
67941;SDS011;54731;42.600;23.476;2022-10-15T12:21:40;11.23;;;4.45;;
67941;SDS011;54731;42.600;23.476;2022-10-15T12:34:53;6.38;;;3.40;;
67941;SDS011;54731;42.600;23.476;2022-10-15T12:37:21;6.20;;;2.90;;
67941;SDS011;54731;42.600;23.476;2022-10-15T12:40:02;6.03;;;2.72;;
67941;SDS011;54731;42.600;23.476;2022-10-15T12:42:48;5.15;;;2.45;;
67941;SDS011;54731;42.600;23.476;2022-10-15T12:45:20;4.33;;;2.33;;
67941;SDS011;54731;42.600;23.476;2022-10-15T12:47:49;9.35;;;3.20;;
67941;SDS011;54731;42.600;23.476;2022-10-15T12:50:26;7.13;;;3.25;;
67941;SDS011;54731;42.600;23.476;2022-10-15T12:55:28;7.13;;;3.13;;
67941;SDS011;54731;42.600;23.476;2022-10-15T13:00:29;6.65;;;2.70;;
67941;SDS011;54731;42.600;23.476;2022-10-15T13:02:56;7.80;;;3.30;;
67941;SDS011;54731;42.600;23.476;2022-10-15T13:05:43;4.85;;;2.30;;
67941;SDS011;54731;42.600;23.476;2022-10-15T13:08:13;5.75;;;3.20;;
67941;SDS011;54731;42.600;23.476;2022-10-15T13:10:47;6.07;;;2.10;;
67941;SDS011;54731;42.600;23.476;2022-10-15T13:13:16;5.78;;;3.85;;
67941;SDS011;54731;42.600;23.476;2022-10-15T13:15:58;8.45;;;3.40;;
67941;SDS011;54731;42.600;23.476;2022-10-15T13:18:25;6.28;;;2.95;;
67941;SDS011;54731;42.600;23.476;2022-10-15T13:20:53;7.50;;;3.00;;
67941;SDS011;54731;42.600;23.476;2022-10-15T13:23:23;17.20;;;7.37;;
67941;SDS011;54731;42.600;23.476;2022-10-15T13:25:50;94.20;;;21.83;;
67941;SDS011;54731;42.600;23.476;2022-10-15T13:28:29;19.63;;;6.20;;
67941;SDS011;54731;42.600;23.476;2022-10-15T13:30:59;6.63;;;2.88;;
67941;SDS011;54731;42.600;23.476;2022-10-15T13:33:27;7.90;;;3.40;;
67941;SDS011;54731;42.600;23.476;2022-10-15T13:35:52;8.50;;;2.97;;
67941;SDS011;54731;42.600;23.476;2022-10-15T13:38:20;4.83;;;2.97;;
67941;SDS011;54731;42.600;23.476;2022-10-15T13:40:47;5.82;;;2.38;;
67941;SDS011;54731;42.600;23.476;2022-10-15T13:43:19;4.88;;;2.60;;
67941;SDS011;54731;42.600;23.476;2022-10-15T13:45:51;6.38;;;2.85;;
67941;SDS011;54731;42.600;23.476;2022-10-15T13:48:22;3.57;;;2.27;;
67941;SDS011;54731;42.600;23.476;2022-10-15T13:50:56;6.78;;;3.35;;
67941;SDS011;54731;42.600;23.476;2022-10-15T13:56:00;4.22;;;2.80;;
67941;SDS011;54731;42.600;23.476;2022-10-15T13:58:33;7.07;;;3.35;;
67941;SDS011;54731;42.600;23.476;2022-10-15T14:01:03;6.23;;;3.30;;
67941;SDS011;54731;42.600;23.476;2022-10-15T14:03:43;3.42;;;2.40;;
67941;SDS011;54731;42.600;23.476;2022-10-15T14:06:16;8.05;;;2.72;;
67941;SDS011;54731;42.600;23.476;2022-10-15T14:08:42;5.07;;;2.40;;
67941;SDS011;54731;42.600;23.476;2022-10-15T14:11:09;5.23;;;2.50;;
67941;SDS011;54731;42.600;23.476;2022-10-15T14:13:42;10.18;;;2.40;;
67941;SDS011;54731;42.600;23.476;2022-10-15T14:16:12;5.30;;;2.95;;
67941;SDS011;54731;42.600;23.476;2022-10-15T14:18:42;7.25;;;3.00;;
67941;SDS011;54731;42.600;23.476;2022-10-15T14:21:22;5.70;;;2.80;;
67941;SDS011;54731;42.600;23.476;2022-10-15T14:23:49;9.07;;;3.00;;
67941;SDS011;54731;42.600;23.476;2022-10-15T14:26:14;8.43;;;2.50;;
67941;SDS011;54731;42.600;23.476;2022-10-15T14:28:49;7.80;;;3.47;;
67941;SDS011;54731;42.600;23.476;2022-10-15T14:31:31;10.48;;;5.80;;
67941;SDS011;54731;42.600;23.476;2022-10-15T14:33:59;9.20;;;4.10;;
67941;SDS011;54731;42.600;23.476;2022-10-15T14:36:27;8.45;;;5.55;;
67941;SDS011;54731;42.600;23.476;2022-10-15T14:38:54;11.32;;;9.13;;
67941;SDS011;54731;42.600;23.476;2022-10-15T14:41:40;7.22;;;3.95;;
67941;SDS011;54731;42.600;23.476;2022-10-15T14:44:21;8.05;;;3.72;;
67941;SDS011;54731;42.600;23.476;2022-10-15T14:46:47;7.80;;;4.07;;
67941;SDS011;54731;42.600;23.476;2022-10-15T14:52:06;180.13;;;53.22;;
67941;SDS011;54731;42.600;23.476;2022-10-15T14:54:40;26.48;;;10.90;;
67941;SDS011;54731;42.600;23.476;2022-10-15T14:57:26;8.23;;;4.63;;
67941;SDS011;54731;42.600;23.476;2022-10-15T14:59:54;21.52;;;13.30;;
67941;SDS011;54731;42.600;23.476;2022-10-15T15:02:21;37.90;;;20.92;;
67941;SDS011;54731;42.600;23.476;2022-10-15T15:05:41;61.95;;;34.95;;
67941;SDS011;54731;42.600;23.476;2022-10-15T15:07:35;15.60;;;8.82;;
67941;SDS011;54731;42.600;23.476;2022-10-15T15:10:00;13.20;;;7.70;;
67941;SDS011;54731;42.600;23.476;2022-10-15T15:12:26;9.03;;;6.47;;
67941;SDS011;54731;42.600;23.476;2022-10-15T15:14:52;6.43;;;4.22;;
67941;SDS011;54731;42.600;23.476;2022-10-15T15:17:21;6.07;;;3.53;;
67941;SDS011;54731;42.600;23.476;2022-10-15T15:19:48;6.07;;;2.85;;
67941;SDS011;54731;42.600;23.476;2022-10-15T15:22:17;6.30;;;2.90;;
67941;SDS011;54731;42.600;23.476;2022-10-15T15:24:47;4.10;;;2.42;;
67941;SDS011;54731;42.600;23.476;2022-10-15T15:27:17;5.83;;;2.63;;
67941;SDS011;54731;42.600;23.476;2022-10-15T15:29:47;5.03;;;2.08;;
67941;SDS011;54731;42.600;23.476;2022-10-15T15:32:13;11.90;;;5.35;;
67941;SDS011;54731;42.600;23.476;2022-10-15T15:34:39;9.82;;;4.25;;
67941;SDS011;54731;42.600;23.476;2022-10-15T15:37:10;14.10;;;7.03;;
67941;SDS011;54731;42.600;23.476;2022-10-15T15:39:37;11.68;;;4.60;;
67941;SDS011;54731;42.600;23.476;2022-10-15T15:42:02;11.53;;;4.47;;
67941;SDS011;54731;42.600;23.476;2022-10-15T15:44:28;7.73;;;5.30;;
67941;SDS011;54731;42.600;23.476;2022-10-15T15:46:53;38.27;;;22.23;;
67941;SDS011;54731;42.600;23.476;2022-10-15T15:49:18;22.17;;;13.40;;
67941;SDS011;54731;42.600;23.476;2022-10-15T15:51:44;25.20;;;15.17;;
67941;SDS011;54731;42.600;23.476;2022-10-15T15:54:09;7.93;;;6.03;;
67941;SDS011;54731;42.600;23.476;2022-10-15T15:56:34;6.77;;;3.87;;
67941;SDS011;54731;42.600;23.476;2022-10-15T15:59:00;21.90;;;11.98;;
67941;SDS011;54731;42.600;23.476;2022-10-15T16:01:25;11.73;;;6.07;;
67941;SDS011;54731;42.600;23.476;2022-10-15T16:03:50;18.00;;;8.63;;
67941;SDS011;54731;42.600;23.476;2022-10-15T16:06:16;12.03;;;6.30;;
67941;SDS011;54731;42.600;23.476;2022-10-15T16:08:41;13.27;;;7.07;;
67941;SDS011;54731;42.600;23.476;2022-10-15T16:11:06;5.67;;;3.30;;
67941;SDS011;54731;42.600;23.476;2022-10-15T16:13:32;6.83;;;3.20;;
67941;SDS011;54731;42.600;23.476;2022-10-15T16:15:57;20.63;;;9.20;;
67941;SDS011;54731;42.600;23.476;2022-10-15T16:18:23;7.07;;;3.80;;
67941;SDS011;54731;42.600;23.476;2022-10-15T16:20:48;4.83;;;3.03;;
67941;SDS011;54731;42.600;23.476;2022-10-15T16:23:14;4.37;;;2.40;;
67941;SDS011;54731;42.600;23.476;2022-10-15T16:25:40;8.00;;;4.28;;